Погода Слободка (Слобода)на 2 недели

Минская область, Белоруссия

23 июля-05 августа
  • 23июля
    Сегодня
    +15°
    +27°
    Ясно и безоблачно
    ВремяПогодаТемператураВлажностьДавлениеВетер, м/сВероятность осадков
    00:00Ясно и безоблачно+17°C85 %739 мм1.2 м/с2 %
    03:00Ясно и безоблачно+16°C93 %739 мм1.7 м/с2 %
    06:00Ясно и безоблачно+15°C96 %740 мм1.7 м/с2 %
    09:00Ясно и безоблачно+21°C75 %740 мм2.3 м/с2 %
    12:00Ясно и безоблачно+24°C54 %740 мм1.9 м/с2 %
    15:00Ясно и безоблачно+26°C45 %740 мм2.2 м/с9 %
    18:00Практически безоблачно+26°C47 %739 мм2.4 м/с19 %
    21:00Небольшая облачность+22°C63 %740 мм2.6 м/с5 %
  • 24июля
    Среда
    +14°
    +26°
    Небольшая облачность и лёгкий дождик
    ВремяПогодаТемператураВлажностьДавлениеВетер, м/сВероятность осадков
    00:00Облачно с прояснениями+18°C77 %739 мм1.7 м/с2 %
    03:00Облачно с прояснениями+17°C82 %739 мм1.8 м/с2 %
    06:00Небольшая облачность+16°C79 %739 мм2.1 м/с2 %
    09:00Небольшая облачность+21°C60 %739 мм2.2 м/с2 %
    12:00Практически безоблачно+24°C45 %739 мм2.7 м/с1 %
    15:00Небольшая облачность и лёгкий дождик+25°C43 %738 мм2.2 м/с37 %
    18:00Ясно и безоблачно+25°C42 %737 мм2.6 м/с33 %
    21:00Ясно и безоблачно+22°C52 %737 мм2.0 м/с5 %
  • 25июля
    Четверг
    +15°
    +25°
    Практически безоблачно
    ВремяПогодаТемператураВлажностьДавлениеВетер, м/сВероятность осадков
    00:00Ясно и безоблачно+18°C76 %737 мм2.9 м/с2 %
    03:00Ясно и безоблачно+16°C77 %737 мм2.7 м/с2 %
    06:00Практически безоблачно+15°C73 %736 мм2.8 м/с2 %
    09:00Облачно с прояснениями+20°C56 %737 мм3.1 м/с4 %
    12:00Облачно с прояснениями+24°C38 %737 мм4.5 м/с6 %
    15:00Практически безоблачно+24°C35 %737 мм4.1 м/с7 %
    18:00Небольшая облачность+25°C32 %736 мм3.2 м/с5 %
    21:00Облачно с прояснениями+21°C44 %736 мм3.1 м/с7 %
  • 26июля
    Пятница
    +15°
    +27°
    Ясно и безоблачно
    ВремяПогодаТемператураВлажностьДавлениеВетер, м/сВероятность осадков
    00:00Небольшая облачность+17°C59 %737 мм2.9 м/с6 %
    03:00Небольшая облачность+16°C66 %737 мм2.0 м/с4 %
    06:00Облачно с прояснениями+16°C64 %738 мм2.7 м/с4 %
    09:00Ясно и безоблачно+20°C51 %738 мм2.5 м/с8 %
    12:00Практически безоблачно+25°C34 %739 мм1.8 м/с10 %
    15:00Ясно и безоблачно+26°C30 %739 мм1.2 м/с20 %
    18:00Ясно и безоблачно+26°C28 %739 мм1.6 м/с27 %
    21:00Практически безоблачно+23°C46 %740 мм1.6 м/с13 %
  • 27июля
    Суббота
    +16°
    +28°
    Ясно и безоблачно
    ВремяПогодаТемператураВлажностьДавлениеВетер, м/сВероятность осадков
    00:00Ясно и безоблачно+20°C49 %741 мм1.0 м/с8 %
    03:00Практически безоблачно+17°C66 %741 мм2.1 м/с10 %
    06:00Ясно и безоблачно+16°C75 %741 мм2.0 м/с10 %
    09:00Ясно и безоблачно+21°C57 %742 мм1.1 м/с9 %
    12:00Облачно с прояснениями+26°C33 %743 мм1.3 м/с17 %
    15:00Ясно и безоблачно+28°C33 %743 мм1.9 м/с25 %
    18:00Ясно и безоблачно+27°C34 %742 мм2.6 м/с33 %
    21:00Практически безоблачно+23°C51 %743 мм3.1 м/с9 %
Мы используем cookies
Соглашаюсь